createdAt,value
2022-09-24T00:00:53.879Z,27.00
2022-09-24T00:04:06.100Z,28.00
2022-09-24T00:07:08.271Z,31.50
2022-09-24T00:10:10.529Z,32.00
2022-09-24T00:13:16.117Z,26.67
2022-09-24T00:16:20.380Z,30.00
2022-09-24T00:19:22.625Z,39.00
2022-09-24T00:22:24.877Z,24.67
2022-09-24T00:25:45.694Z,36.00
2022-09-24T00:28:50.787Z,27.33
2022-09-24T00:31:53.678Z,23.67
2022-09-24T00:34:55.962Z,24.67
2022-09-24T00:37:58.331Z,30.00
2022-09-24T00:41:01.103Z,24.67
2022-09-24T00:44:41.838Z,28.67
2022-09-24T00:47:44.905Z,30.33
2022-09-24T00:50:47.789Z,30.33
2022-09-24T00:53:52.785Z,23.33
2022-09-24T00:56:57.143Z,35.67
2022-09-24T00:59:59.566Z,25.00
2022-09-24T01:03:12.215Z,27.00
2022-09-24T01:06:14.482Z,25.33
2022-09-24T01:09:20.547Z,36.67
2022-09-24T01:12:25.820Z,30.67
2022-09-24T01:15:34.734Z,37.33
2022-09-24T01:19:01.096Z,35.00
2022-09-24T01:22:07.391Z,34.00
2022-09-24T01:25:47.058Z,28.67
2022-09-24T01:28:59.236Z,32.67
2022-09-24T01:32:11.116Z,29.67
2022-09-24T01:35:19.195Z,35.33
2022-09-24T01:38:39.545Z,27.00
2022-09-24T01:41:43.224Z,33.00
2022-09-24T01:44:49.097Z,27.67
2022-09-24T01:47:51.137Z,29.00
2022-09-24T01:51:05.868Z,29.33
2022-09-24T01:54:15.675Z,23.33
2022-09-24T01:57:27.344Z,30.67
2022-09-24T02:00:29.553Z,36.33
2022-09-24T02:03:36.237Z,37.33
2022-09-24T02:06:47.874Z,29.33
2022-09-24T02:09:50.163Z,33.00
2022-09-24T02:13:03.820Z,27.67
2022-09-24T02:16:15.004Z,31.67
2022-09-24T02:19:19.710Z,40.33
2022-09-24T02:22:23.996Z,29.00
2022-09-24T02:25:34.151Z,31.67
2022-09-24T02:28:36.544Z,33.00
2022-09-24T02:31:41.421Z,26.00
2022-09-24T02:34:47.324Z,28.00
2022-09-24T02:37:49.442Z,31.67
2022-09-24T02:40:53.401Z,34.33
2022-09-24T02:43:55.627Z,32.00
2022-09-24T02:46:58.894Z,28.67
2022-09-24T02:50:01.049Z,27.00
2022-09-24T02:53:03.391Z,29.33
2022-09-24T02:56:05.864Z,28.67
2022-09-24T02:59:08.525Z,29.33
2022-09-24T03:02:10.795Z,31.33
2022-09-24T03:05:18.055Z,26.67
2022-09-24T03:08:21.082Z,31.00
2022-09-24T03:11:23.648Z,33.00
2022-09-24T03:14:26.182Z,30.33
2022-09-24T03:17:29.039Z,35.33
2022-09-24T03:20:31.191Z,27.00
2022-09-24T03:23:33.524Z,31.33
2022-09-24T03:26:35.929Z,30.33
2022-09-24T03:29:56.842Z,27.00
2022-09-24T03:32:59.682Z,34.33
2022-09-24T03:36:12.049Z,38.33
2022-09-24T03:39:14.202Z,31.67
2022-09-24T03:42:16.420Z,40.33
2022-09-24T03:45:18.505Z,34.33
2022-09-24T03:48:21.966Z,30.00
2022-09-24T03:51:24.523Z,40.00
2022-09-24T03:54:26.796Z,25.33
2022-09-24T03:57:28.781Z,35.33
2022-09-24T04:00:31.024Z,24.00
2022-09-24T04:03:33.308Z,33.67
2022-09-24T04:06:35.587Z,29.33
2022-09-24T04:09:37.617Z,29.67
2022-09-24T04:12:39.805Z,35.67
2022-09-24T04:15:41.912Z,29.67
2022-09-24T04:18:44.247Z,32.00
2022-09-24T04:21:46.362Z,27.67
2022-09-24T04:24:48.549Z,26.00
2022-09-24T04:28:05.758Z,38.67
2022-09-24T04:31:08.095Z,34.67
2022-09-24T04:34:10.457Z,11.00
2022-09-24T04:37:12.701Z,37.67
2022-09-24T04:40:16.353Z,27.67
2022-09-24T04:43:19.375Z,31.00
2022-09-24T04:46:21.553Z,33.67
2022-09-24T04:49:24.258Z,33.00
2022-09-24T04:52:31.522Z,29.00
2022-09-24T04:55:33.801Z,34.33
2022-09-24T04:58:36.224Z,28.33
2022-09-24T05:01:38.596Z,31.00
2022-09-24T05:04:41.245Z,35.00
2022-09-24T05:07:44.665Z,34.33
2022-09-24T05:10:46.746Z,31.67
2022-09-24T05:13:48.904Z,38.00
2022-09-24T05:16:51.039Z,30.33
2022-09-24T05:19:53.587Z,26.00
2022-09-24T05:22:55.684Z,33.67
2022-09-24T05:26:30.362Z,40.67
2022-09-24T05:29:32.426Z,29.67
2022-09-24T05:32:36.830Z,33.67
2022-09-24T05:35:39.005Z,31.67
2022-09-24T05:38:41.935Z,34.67
2022-09-24T05:41:44.537Z,32.67
2022-09-24T05:44:52.103Z,37.00
2022-09-24T05:47:54.671Z,29.67
2022-09-24T05:50:57.299Z,30.67
2022-09-24T05:53:59.345Z,28.67
2022-09-24T05:57:01.596Z,26.33
2022-09-24T06:00:05.818Z,31.33
2022-09-24T06:03:16.647Z,30.67
2022-09-24T06:06:19.035Z,37.33
2022-09-24T06:09:21.379Z,43.00
2022-09-24T06:12:23.605Z,44.00
2022-09-24T06:15:27.380Z,42.00
2022-09-24T06:18:29.779Z,46.00
2022-09-24T06:21:32.182Z,42.00
2022-09-24T06:24:34.905Z,45.33
2022-09-24T06:27:38.484Z,35.00
2022-09-24T06:30:41.470Z,37.00
2022-09-24T06:33:43.823Z,30.33
2022-09-24T06:36:45.916Z,26.67
2022-09-24T06:39:48.341Z,31.67
2022-09-24T06:42:54.134Z,32.67
2022-09-24T06:45:57.254Z,35.33
2022-09-24T06:49:00.631Z,55.00
2022-09-24T06:52:03.218Z,52.00
2022-09-24T06:55:05.864Z,56.67
2022-09-24T06:58:15.122Z,61.67
2022-09-24T07:01:17.575Z,58.33
2022-09-24T07:04:20.033Z,47.33
2022-09-24T07:07:34.363Z,61.67
2022-09-24T07:10:37.851Z,58.33
2022-09-24T07:13:39.894Z,59.67
2022-09-24T07:16:42.298Z,47.00
2022-09-24T07:19:44.540Z,58.00
2022-09-24T07:22:46.917Z,65.00
2022-09-24T07:25:49.767Z,69.00
2022-09-24T07:28:52.433Z,65.00
2022-09-24T07:31:54.628Z,58.67
2022-09-24T07:34:57.102Z,59.67
2022-09-24T07:38:04.415Z,55.75
2022-09-24T07:41:09.250Z,57.25
2022-09-24T07:44:11.821Z,48.00
2022-09-24T07:47:15.810Z,42.25
2022-09-24T07:50:18.727Z,45.25
2022-09-24T07:53:21.979Z,46.50
2022-09-24T07:56:24.851Z,39.25
2022-09-24T07:59:27.461Z,34.00
2022-09-24T08:02:29.606Z,30.75
2022-09-24T08:05:33.163Z,26.25
2022-09-24T08:08:35.441Z,34.25
2022-09-24T08:11:39.296Z,26.50
2022-09-24T08:14:43.364Z,32.75
2022-09-24T08:17:45.609Z,24.75
2022-09-24T08:20:47.760Z,24.25
2022-09-24T08:23:50.333Z,28.50
2022-09-24T08:26:52.590Z,23.50
2022-09-24T08:29:56.457Z,25.50
2022-09-24T08:32:58.871Z,24.75
2022-09-24T08:36:02.849Z,21.75
2022-09-24T08:39:06.295Z,28.00
2022-09-24T08:42:15.634Z,27.50
2022-09-24T08:45:36.530Z,22.00
2022-09-24T08:48:42.345Z,21.00
2022-09-24T08:51:58.136Z,21.00
2022-09-24T08:55:06.343Z,21.00
2022-09-24T08:58:29.161Z,11.75
2022-09-24T09:01:37.949Z,19.00
2022-09-24T09:04:54.898Z,21.25
2022-09-24T09:08:46.703Z,18.25
2022-09-24T09:11:40.347Z,13.50
2022-09-24T09:14:55.142Z,13.25
2022-09-24T09:18:12.741Z,13.00
2022-09-24T09:21:25.198Z,14.00
2022-09-24T09:24:38.413Z,14.50
2022-09-24T09:27:40.892Z,10.25
2022-09-24T09:30:57.217Z,13.25
2022-09-24T09:34:11.594Z,17.25
2022-09-24T09:37:39.327Z,17.25
2022-09-24T09:40:46.150Z,17.50
2022-09-24T09:43:48.463Z,17.00
2022-09-24T09:46:54.517Z,13.75
2022-09-24T09:49:58.364Z,8.00
2022-09-24T09:53:00.591Z,25.25
2022-09-24T09:56:06.535Z,17.00
2022-09-24T09:59:11.936Z,17.75
2022-09-24T10:02:31.469Z,11.25
2022-09-24T10:05:34.889Z,11.25
2022-09-24T10:08:37.024Z,14.75
2022-09-24T10:11:39.493Z,15.00
2022-09-24T10:14:41.989Z,14.67
2022-09-24T10:17:45.945Z,13.75
2022-09-24T10:20:48.401Z,14.33
2022-09-24T10:23:51.066Z,14.67
2022-09-24T10:26:53.699Z,49.50
2022-09-24T10:30:15.137Z,23.00
2022-09-24T10:33:18.768Z,9.33
2022-09-24T10:36:26.993Z,8.33
2022-09-24T10:39:30.702Z,10.75
2022-09-24T10:42:32.948Z,15.75
2022-09-24T10:45:50.086Z,11.50
2022-09-24T10:48:52.432Z,15.25
2022-09-24T10:51:58.996Z,11.25
2022-09-24T10:55:10.703Z,11.25
2022-09-24T10:58:31.283Z,7.75
2022-09-24T11:01:56.876Z,13.75
2022-09-24T11:05:00.668Z,13.25
2022-09-24T11:08:34.383Z,14.00
2022-09-24T11:11:59.136Z,11.00
2022-09-24T11:15:46.255Z,13.75
2022-09-24T11:19:03.294Z,10.75
2022-09-24T11:22:16.203Z,10.25
2022-09-24T11:25:40.157Z,8.25
2022-09-24T11:29:01.313Z,9.50
2022-09-24T11:32:33.756Z,16.50
2022-09-24T11:36:07.168Z,17.75
2022-09-24T11:39:12.402Z,13.00
2022-09-24T11:42:29.718Z,10.00
2022-09-24T11:45:54.094Z,10.50
2022-09-24T11:49:02.234Z,11.25
2022-09-24T11:52:38.347Z,10.75
2022-09-24T11:55:53.645Z,13.75
2022-09-24T11:59:21.307Z,12.00
2022-09-24T12:02:31.787Z,11.50
2022-09-24T12:05:37.702Z,8.75
2022-09-24T12:08:44.431Z,9.00
2022-09-24T12:11:57.815Z,9.00
2022-09-24T12:15:12.635Z,9.00
2022-09-24T12:18:22.517Z,9.00
2022-09-24T12:21:43.272Z,8.00
2022-09-24T12:24:50.754Z,9.00
2022-09-24T12:27:53.502Z,7.00
2022-09-24T12:31:17.886Z,7.00
2022-09-24T12:34:34.367Z,6.00
2022-09-24T12:37:39.580Z,5.00
2022-09-24T12:41:10.202Z,3.00
2022-09-24T12:44:12.426Z,4.00
2022-09-24T12:47:29.714Z,3.67
2022-09-24T12:50:34.517Z,4.00
2022-09-24T12:53:39.093Z,3.00
2022-09-24T12:56:41.207Z,4.00
2022-09-24T12:59:48.167Z,2.67
2022-09-24T13:02:51.595Z,3.00
2022-09-24T13:05:55.723Z,3.00
2022-09-24T13:08:58.112Z,3.00
2022-09-24T13:12:20.837Z,3.00
2022-09-24T13:15:42.143Z,3.00
2022-09-24T13:18:52.544Z,3.00
2022-09-24T13:21:58.076Z,2.00
2022-09-24T13:25:09.947Z,3.33
2022-09-24T13:28:25.401Z,3.00
2022-09-24T13:31:33.900Z,3.33
2022-09-24T13:34:36.649Z,3.00
2022-09-24T13:37:42.779Z,4.00
2022-09-24T13:40:51.822Z,2.67
2022-09-24T13:44:21.073Z,5.00
2022-09-24T13:47:43.372Z,3.00
2022-09-24T13:50:50.196Z,1.33
2022-09-24T13:54:23.571Z,3.33
2022-09-24T13:57:28.457Z,2.00
2022-09-24T14:00:32.256Z,3.00
2022-09-24T14:03:36.495Z,3.67
2022-09-24T14:06:41.520Z,2.75
2022-09-24T14:09:47.818Z,3.00
2022-09-24T14:13:00.037Z,3.75
2022-09-24T14:16:10.717Z,3.50
2022-09-24T14:19:14.765Z,8.50
2022-09-24T14:22:23.775Z,4.00
2022-09-24T14:25:28.869Z,5.00
2022-09-24T14:28:33.207Z,10.00
2022-09-24T14:31:45.177Z,5.00
2022-09-24T14:34:51.794Z,5.00
2022-09-24T14:38:04.292Z,4.75
2022-09-24T14:41:15.912Z,5.00
2022-09-24T14:44:28.408Z,4.00
2022-09-24T14:47:33.806Z,4.00
2022-09-24T14:50:40.720Z,4.50
2022-09-24T14:53:42.987Z,5.00
2022-09-24T14:56:45.171Z,4.67
2022-09-24T14:59:47.693Z,5.00
2022-09-24T15:03:13.884Z,3.50
2022-09-24T15:06:22.443Z,5.00
2022-09-24T15:09:29.267Z,3.50
2022-09-24T15:12:35.218Z,3.00
2022-09-24T15:15:37.361Z,6.75
2022-09-24T15:18:39.759Z,4.25
2022-09-24T15:21:41.887Z,7.00
2022-09-24T15:24:44.192Z,4.50
2022-09-24T15:27:46.530Z,6.00
2022-09-24T15:30:49.167Z,3.33
2022-09-24T15:33:51.919Z,5.00
2022-09-24T15:36:56.375Z,6.00
2022-09-24T15:40:26.035Z,6.00
2022-09-24T15:43:29.514Z,5.00
2022-09-24T15:46:31.803Z,5.00
2022-09-24T15:49:34.247Z,4.00
2022-09-24T15:52:41.999Z,6.00
2022-09-24T15:55:48.550Z,4.00
2022-09-24T15:58:51.078Z,9.00
2022-09-24T16:01:55.709Z,5.50
2022-09-24T16:05:02.837Z,4.75
2022-09-24T16:08:06.379Z,6.75
2022-09-24T16:11:09.329Z,4.25
2022-09-24T16:14:11.778Z,4.00
2022-09-24T16:17:13.854Z,6.00
2022-09-24T16:20:16.678Z,5.00
2022-09-24T16:23:18.991Z,4.00
2022-09-24T16:26:21.353Z,5.25
2022-09-24T16:29:23.443Z,5.75
2022-09-24T16:32:25.823Z,5.00
2022-09-24T16:35:27.898Z,4.00
2022-09-24T16:38:30.154Z,4.00
2022-09-24T16:41:34.715Z,4.25
2022-09-24T16:44:37.269Z,5.50
2022-09-24T16:47:39.390Z,8.75
2022-09-24T16:50:41.658Z,8.75
2022-09-24T16:53:48.539Z,8.75
2022-09-24T16:56:52.321Z,8.00
2022-09-24T16:59:54.759Z,7.75
2022-09-24T17:02:57.310Z,8.75
2022-09-24T17:05:59.492Z,8.75
2022-09-24T17:09:20.334Z,10.25
2022-09-24T17:12:22.394Z,9.00
2022-09-24T17:15:24.753Z,9.25
2022-09-24T17:18:27.619Z,12.00
2022-09-24T17:21:30.117Z,10.75
2022-09-24T17:24:32.325Z,12.00
2022-09-24T17:27:35.082Z,14.50
2022-09-24T17:30:38.069Z,12.00
2022-09-24T17:33:44.580Z,13.75
2022-09-24T17:36:47.698Z,14.00
2022-09-24T17:39:50.450Z,14.50
2022-09-24T17:42:52.856Z,20.00
2022-09-24T17:46:02.143Z,24.00
2022-09-24T17:49:06.087Z,12.50
2022-09-24T17:52:09.111Z,12.50
2022-09-24T17:55:11.507Z,11.00
2022-09-24T17:58:14.340Z,12.75
2022-09-24T18:01:22.338Z,12.75
2022-09-24T18:04:27.039Z,10.00
2022-09-24T18:07:29.771Z,12.00
2022-09-24T18:10:32.289Z,10.75
2022-09-24T18:13:35.165Z,11.25
2022-09-24T18:16:37.570Z,9.50
2022-09-24T18:19:39.790Z,12.75
2022-09-24T18:22:42.321Z,9.00
2022-09-24T18:25:44.626Z,7.50
2022-09-24T18:28:52.410Z,12.00
2022-09-24T18:31:54.614Z,12.75
2022-09-24T18:34:57.145Z,13.00
2022-09-24T18:37:59.215Z,15.00
2022-09-24T18:41:09.809Z,14.00
2022-09-24T18:44:12.145Z,16.25
2022-09-24T18:47:14.905Z,11.00
2022-09-24T18:50:17.288Z,12.75
2022-09-24T18:53:19.750Z,17.25
2022-09-24T18:56:24.072Z,11.00
2022-09-24T18:59:26.642Z,16.75
2022-09-24T19:02:29.068Z,14.50
2022-09-24T19:05:31.474Z,14.50
2022-09-24T19:08:35.560Z,15.25
2022-09-24T19:11:38.148Z,12.50
2022-09-24T19:14:40.384Z,11.25
2022-09-24T19:17:43.215Z,13.00
2022-09-24T19:20:48.832Z,14.25
2022-09-24T19:23:53.608Z,15.00
2022-09-24T19:26:55.894Z,14.25
2022-09-24T19:29:58.314Z,12.00
2022-09-24T19:33:00.527Z,13.50
2022-09-24T19:36:04.776Z,13.75
2022-09-24T19:39:08.701Z,11.75
2022-09-24T19:42:11.188Z,14.25
2022-09-24T19:45:13.714Z,11.75
2022-09-24T19:48:16.180Z,12.50
2022-09-24T19:51:20.544Z,11.25
2022-09-24T19:54:22.919Z,15.00
2022-09-24T19:57:25.150Z,12.25
2022-09-24T20:00:27.649Z,12.25
2022-09-24T20:03:31.709Z,15.00
2022-09-24T20:06:35.852Z,15.50
2022-09-24T20:09:38.078Z,14.75
2022-09-24T20:12:42.811Z,19.00
2022-09-24T20:15:45.020Z,12.50
2022-09-24T20:18:55.108Z,15.25
2022-09-24T20:21:59.002Z,17.75
2022-09-24T20:25:01.309Z,18.00
2022-09-24T20:28:03.332Z,22.25
2022-09-24T20:31:13.013Z,25.00
2022-09-24T20:34:15.110Z,24.25
2022-09-24T20:37:17.423Z,23.25
2022-09-24T20:40:19.550Z,24.50
2022-09-24T20:43:22.338Z,33.00
2022-09-24T20:46:26.787Z,26.50
2022-09-24T20:49:29.967Z,31.25
2022-09-24T20:52:33.541Z,30.00
2022-09-24T20:55:36.111Z,30.50
2022-09-24T20:58:40.069Z,44.67
2022-09-24T21:01:42.846Z,58.33
2022-09-24T21:04:45.059Z,50.33
2022-09-24T21:07:47.351Z,51.67
2022-09-24T21:11:00.427Z,45.33
2022-09-24T21:14:03.250Z,50.00
2022-09-24T21:17:05.574Z,61.33
2022-09-24T21:20:09.412Z,58.00
2022-09-24T21:23:11.758Z,55.67
2022-09-24T21:26:20.000Z,57.33
2022-09-24T21:29:22.270Z,65.67
2022-09-24T21:32:25.007Z,54.33
2022-09-24T21:35:27.156Z,73.33
2022-09-24T21:38:29.445Z,67.67
2022-09-24T21:41:34.387Z,68.33
2022-09-24T21:44:36.841Z,72.33
2022-09-24T21:47:39.813Z,69.33
2022-09-24T21:50:42.037Z,75.33
2022-09-24T21:53:44.041Z,77.00
2022-09-24T21:56:46.891Z,69.00
2022-09-24T22:00:01.687Z,82.67
2022-09-24T22:03:09.701Z,73.67
2022-09-24T22:06:12.027Z,76.67
2022-09-24T22:09:14.883Z,83.33
2022-09-24T22:12:17.175Z,85.33
2022-09-24T22:15:21.410Z,79.00
2022-09-24T22:18:23.830Z,86.00
2022-09-24T22:21:27.287Z,94.33
2022-09-24T22:24:29.479Z,84.67
2022-09-24T22:27:31.769Z,85.50
2022-09-24T22:30:33.882Z,88.33
2022-09-24T22:33:54.870Z,85.00
2022-09-24T22:36:57.509Z,88.50
2022-09-24T22:40:01.412Z,84.25
2022-09-24T22:43:03.879Z,91.50
2022-09-24T22:46:09.223Z,86.25
2022-09-24T22:49:11.462Z,94.25
2022-09-24T22:52:13.797Z,92.50
2022-09-24T22:55:16.070Z,94.75
2022-09-24T22:58:18.260Z,92.50
2022-09-24T23:01:23.402Z,94.75
2022-09-24T23:04:25.737Z,97.50
2022-09-24T23:07:27.850Z,95.25
2022-09-24T23:10:30.080Z,95.25
2022-09-24T23:13:32.902Z,86.50
2022-09-24T23:16:37.128Z,94.50
2022-09-24T23:19:52.092Z,100.50
2022-09-24T23:22:54.390Z,93.00
2022-09-24T23:26:16.280Z,93.75
2022-09-24T23:29:19.671Z,93.75
2022-09-24T23:32:21.697Z,98.25
2022-09-24T23:35:23.977Z,96.50
2022-09-24T23:38:26.270Z,90.75
2022-09-24T23:41:32.118Z,94.25
2022-09-24T23:44:34.924Z,95.75
2022-09-24T23:47:37.166Z,95.00
2022-09-24T23:50:39.386Z,92.25
2022-09-24T23:53:41.764Z,91.25
2022-09-24T23:56:43.831Z,95.50
2022-09-24T23:59:46.075Z,93.75
